createdAt,value
2018-07-16T00:03:55.851Z,4.33
2018-07-16T00:08:58.348Z,4.50
2018-07-16T00:14:00.833Z,5.53
2018-07-16T00:19:03.339Z,4.70
2018-07-16T00:24:05.839Z,3.80
2018-07-16T00:29:09.089Z,4.33
2018-07-16T00:34:11.569Z,3.80
2018-07-16T00:39:14.057Z,4.10
2018-07-16T00:44:16.549Z,5.00
2018-07-16T00:49:19.792Z,5.43
2018-07-16T00:54:22.285Z,4.60
2018-07-16T00:59:24.788Z,4.40
2018-07-16T01:04:27.267Z,4.10
2018-07-16T01:09:29.749Z,4.23
2018-07-16T01:14:32.229Z,4.60
2018-07-16T01:19:34.712Z,4.60
2018-07-16T01:24:37.204Z,4.30
2018-07-16T01:29:39.686Z,5.30
2018-07-16T01:34:42.801Z,5.00
2018-07-16T01:39:45.285Z,4.40
2018-07-16T01:44:47.864Z,4.33
2018-07-16T01:49:50.357Z,4.20
2018-07-16T01:54:52.953Z,4.80
2018-07-16T01:59:56.209Z,4.90
2018-07-16T02:04:58.712Z,5.10
2018-07-16T02:10:01.673Z,5.07
2018-07-16T02:15:04.156Z,4.70
2018-07-16T02:20:06.653Z,4.97
2018-07-16T02:25:09.136Z,4.90
2018-07-16T02:30:11.666Z,5.57
2018-07-16T02:35:14.141Z,5.13
2018-07-16T02:40:16.647Z,5.90
2018-07-16T02:45:19.158Z,5.23
2018-07-16T02:50:21.634Z,5.73
2018-07-16T02:55:24.129Z,5.77
2018-07-16T03:00:26.612Z,5.00
2018-07-16T03:05:29.097Z,5.53
2018-07-16T03:10:31.581Z,5.30
2018-07-16T03:15:34.065Z,5.93
2018-07-16T03:20:36.546Z,5.50
2018-07-16T03:25:39.029Z,5.43
2018-07-16T03:30:42.279Z,5.30
2018-07-16T03:35:44.773Z,10.00
2018-07-16T03:40:47.280Z,16.33
2018-07-16T03:45:49.753Z,7.13
2018-07-16T03:50:52.249Z,6.07
2018-07-16T03:55:54.762Z,5.60
2018-07-16T04:00:58.765Z,5.60
2018-07-16T04:06:01.518Z,6.73
2018-07-16T04:11:06.012Z,5.93
2018-07-16T04:16:09.766Z,5.27
2018-07-16T04:21:14.987Z,7.00
2018-07-16T04:26:19.306Z,5.90
2018-07-16T04:36:32.445Z,6.60
2018-07-16T04:41:36.519Z,6.13
2018-07-16T04:46:41.370Z,6.07
2018-07-16T04:51:45.901Z,6.10
2018-07-16T04:56:49.570Z,7.30
2018-07-16T05:01:52.458Z,6.43
2018-07-16T05:06:56.591Z,6.00
2018-07-16T05:11:59.614Z,6.70
2018-07-16T05:17:02.101Z,5.87
2018-07-16T05:22:05.157Z,5.87
2018-07-16T05:27:08.590Z,5.87
2018-07-16T05:32:11.533Z,6.03
2018-07-16T05:37:18.678Z,6.03
2018-07-16T05:42:22.369Z,6.07
2018-07-16T05:47:25.719Z,5.80
2018-07-16T05:52:28.706Z,6.00
2018-07-16T05:57:31.725Z,4.80
2018-07-16T06:02:35.487Z,5.00
2018-07-16T06:07:38.580Z,6.13
2018-07-16T06:12:41.667Z,6.10
2018-07-16T06:17:44.372Z,4.30
2018-07-16T06:22:50.714Z,5.17
2018-07-16T06:27:56.657Z,4.50
2018-07-16T06:33:01.099Z,4.07
2018-07-16T06:38:03.585Z,5.00
2018-07-16T06:43:08.246Z,5.20
2018-07-16T06:48:10.827Z,5.70
2018-07-16T06:53:14.123Z,5.80
2018-07-16T06:58:18.950Z,5.07
2018-07-16T07:03:21.940Z,5.17
2018-07-16T07:08:25.063Z,7.13
2018-07-16T07:13:27.872Z,6.20
2018-07-16T07:18:31.347Z,5.70
2018-07-16T07:23:34.743Z,5.73
2018-07-16T07:28:41.680Z,5.77
2018-07-16T07:33:44.622Z,5.27
2018-07-16T07:38:47.422Z,5.47
2018-07-16T07:43:49.925Z,4.90
2018-07-16T07:48:53.748Z,4.90
2018-07-16T07:53:56.508Z,4.63
2018-07-16T07:59:00.713Z,5.80
2018-07-16T08:04:03.371Z,4.67
2018-07-16T08:09:07.404Z,5.30
2018-07-16T08:14:09.888Z,5.40
2018-07-16T08:19:16.096Z,4.70
2018-07-16T08:24:20.147Z,5.63
2018-07-16T08:29:23.576Z,5.10
2018-07-16T08:34:26.517Z,5.80
2018-07-16T08:39:29.682Z,4.57
2018-07-16T08:44:32.858Z,5.27
2018-07-16T08:49:36.290Z,5.40
2018-07-16T08:54:40.184Z,4.57
2018-07-16T08:59:43.743Z,4.60
2018-07-16T09:04:46.233Z,3.67
2018-07-16T09:09:49.497Z,4.40
2018-07-16T09:14:55.022Z,4.87
2018-07-16T09:20:00.542Z,4.60
2018-07-16T09:25:04.430Z,4.17
2018-07-16T09:30:06.920Z,3.60
2018-07-16T09:35:10.550Z,3.23
2018-07-16T09:40:13.525Z,4.10
2018-07-16T09:45:21.066Z,3.50
2018-07-16T09:50:25.908Z,3.27
2018-07-16T09:55:29.200Z,3.70
2018-07-16T10:00:35.217Z,3.60
2018-07-16T10:05:38.097Z,4.30
2018-07-16T10:10:42.453Z,4.93
2018-07-16T10:15:46.499Z,4.10
2018-07-16T10:20:49.921Z,4.27
2018-07-16T10:25:53.123Z,4.33
2018-07-16T10:30:58.177Z,4.00
2018-07-16T10:36:02.134Z,3.87
2018-07-16T10:41:08.720Z,4.80
2018-07-16T10:46:11.475Z,3.90
2018-07-16T10:51:18.726Z,3.57
2018-07-16T10:56:22.767Z,3.83
2018-07-16T11:01:27.713Z,3.50
2018-07-16T11:06:31.796Z,3.40
2018-07-16T11:11:34.797Z,3.30
2018-07-16T11:16:38.558Z,4.17
2018-07-16T11:21:42.056Z,3.90
2018-07-16T11:26:46.924Z,3.63
2018-07-16T11:31:55.281Z,3.40
2018-07-16T11:36:58.710Z,3.83
2018-07-16T11:42:04.297Z,2.60
2018-07-16T11:47:10.191Z,4.10
2018-07-16T11:52:16.741Z,2.87
2018-07-16T11:57:25.206Z,3.50
2018-07-16T12:02:30.201Z,2.93
2018-07-16T12:07:34.165Z,3.00
2018-07-16T12:12:37.813Z,3.43
2018-07-16T12:17:46.850Z,3.43
2018-07-16T12:22:50.027Z,3.20
2018-07-16T12:27:53.948Z,3.40
2018-07-16T12:32:57.825Z,3.00
2018-07-16T12:38:01.157Z,2.90
2018-07-16T12:43:05.094Z,2.37
2018-07-16T12:48:08.443Z,1.93
2018-07-16T12:53:13.713Z,2.00
2018-07-16T12:58:17.631Z,2.37
2018-07-16T13:03:23.795Z,2.27
2018-07-16T13:08:26.755Z,2.13
2018-07-16T13:18:39.200Z,1.83
2018-07-16T13:23:44.436Z,2.57
2018-07-16T13:28:48.204Z,2.60
2018-07-16T13:33:52.831Z,3.33
2018-07-16T13:38:56.254Z,2.90
2018-07-16T13:44:00.444Z,2.63
2018-07-16T13:49:05.409Z,2.90
2018-07-16T13:54:09.085Z,2.40
2018-07-16T14:04:20.006Z,2.10
2018-07-16T14:09:24.816Z,2.17
2018-07-16T14:14:28.477Z,2.40
2018-07-16T14:19:34.071Z,2.20
2018-07-16T14:24:37.249Z,3.07
2018-07-16T14:29:40.803Z,3.17
2018-07-16T14:34:44.452Z,2.80
2018-07-16T14:39:48.760Z,2.30
2018-07-16T14:44:52.430Z,2.83
2018-07-16T14:49:56.606Z,2.33
2018-07-16T14:55:01.312Z,2.73
2018-07-16T15:00:04.649Z,2.43
2018-07-16T15:05:07.973Z,2.70
2018-07-16T15:10:12.938Z,3.13
2018-07-16T15:15:16.967Z,2.70
2018-07-16T15:20:20.409Z,2.50
2018-07-16T15:25:24.290Z,2.47
2018-07-16T15:30:28.092Z,2.27
2018-07-16T15:35:31.700Z,2.40
2018-07-16T15:40:35.537Z,2.20
2018-07-16T15:45:39.978Z,2.20
2018-07-16T15:50:45.635Z,2.20
2018-07-16T15:55:50.967Z,2.60
2018-07-16T16:00:59.600Z,3.03
2018-07-16T16:06:03.174Z,2.23
2018-07-16T16:11:07.266Z,2.33
2018-07-16T16:16:11.677Z,1.90
2018-07-16T16:21:15.136Z,2.40
2018-07-16T16:26:19.878Z,2.60
2018-07-16T16:31:24.349Z,2.30
2018-07-16T16:36:28.674Z,2.10
2018-07-16T16:41:32.108Z,2.07
2018-07-16T16:46:35.668Z,2.23
2018-07-16T16:51:41.705Z,2.37
2018-07-16T16:56:45.267Z,2.30
2018-07-16T17:01:50.077Z,1.80
2018-07-16T17:06:54.017Z,3.27
2018-07-16T17:12:00.932Z,2.20
2018-07-16T17:17:04.554Z,2.30
2018-07-16T17:22:11.234Z,2.40
2018-07-16T17:27:15.809Z,1.90
2018-07-16T17:32:21.340Z,2.10
2018-07-16T17:37:26.391Z,1.73
2018-07-16T17:42:30.277Z,2.23
2018-07-16T17:47:34.248Z,2.07
2018-07-16T17:52:36.730Z,2.20
2018-07-16T17:57:41.256Z,2.23
2018-07-16T18:02:44.575Z,2.17
2018-07-16T18:07:49.009Z,2.20
2018-07-16T18:12:53.554Z,2.30
2018-07-16T18:17:58.642Z,2.57
2018-07-16T18:23:04.731Z,2.20
2018-07-16T18:28:08.698Z,2.00
2018-07-16T18:33:16.404Z,2.07
2018-07-16T18:38:21.300Z,2.03
2018-07-16T18:43:29.977Z,2.47
2018-07-16T18:48:38.691Z,4.10
2018-07-16T18:53:43.844Z,2.70
2018-07-16T18:58:47.599Z,3.77
2018-07-16T19:03:53.482Z,2.87
2018-07-16T19:08:57.711Z,2.60
2018-07-16T19:14:03.510Z,2.53
2018-07-16T19:19:06.473Z,2.67
2018-07-16T19:24:11.483Z,2.10
2018-07-16T19:29:18.709Z,2.33
2018-07-16T19:34:23.365Z,2.70
2018-07-16T19:39:27.901Z,2.53
2018-07-16T19:44:31.542Z,2.07
2018-07-16T19:49:35.444Z,2.50
2018-07-16T19:54:43.824Z,2.33
2018-07-16T19:59:49.475Z,2.83
2018-07-16T20:04:52.612Z,3.50
2018-07-16T20:09:56.873Z,2.37
2018-07-16T20:15:00.888Z,2.77
2018-07-16T20:25:12.279Z,2.87
2018-07-16T20:30:14.801Z,3.03
2018-07-16T20:35:17.361Z,2.90
2018-07-16T20:40:19.862Z,3.40
2018-07-16T20:45:22.363Z,3.00
2018-07-16T20:50:24.852Z,3.40
2018-07-16T20:55:27.356Z,3.53
2018-07-16T21:00:29.841Z,3.30
2018-07-16T21:05:32.332Z,3.30
2018-07-16T21:10:34.827Z,2.60
2018-07-16T21:15:37.320Z,5.97
2018-07-16T21:20:39.920Z,5.67
2018-07-16T21:25:42.392Z,3.67
2018-07-16T21:30:44.889Z,3.90
2018-07-16T21:35:47.380Z,3.80
2018-07-16T21:40:49.905Z,3.40
2018-07-16T21:45:52.376Z,4.83
2018-07-16T21:50:54.872Z,3.40
2018-07-16T21:55:57.358Z,3.63
2018-07-16T22:00:59.850Z,4.17
2018-07-16T22:06:03.549Z,4.97
2018-07-16T22:11:07.120Z,4.97
2018-07-16T22:16:11.941Z,4.60
2018-07-16T22:21:18.361Z,4.40
2018-07-16T22:26:25.326Z,4.03
2018-07-16T22:31:30.596Z,4.53
2018-07-16T22:36:38.328Z,4.70
2018-07-16T22:41:45.422Z,4.00
2018-07-16T22:46:51.397Z,4.77
2018-07-16T22:57:02.086Z,5.73
2018-07-16T23:02:04.664Z,5.33
2018-07-16T23:07:07.134Z,5.53
2018-07-16T23:12:09.698Z,4.43
2018-07-16T23:17:12.199Z,5.50
2018-07-16T23:22:14.692Z,5.20
2018-07-16T23:27:17.192Z,5.20
2018-07-16T23:32:19.685Z,4.70
2018-07-16T23:37:22.180Z,5.33
2018-07-16T23:42:24.746Z,3.50
2018-07-16T23:47:27.216Z,3.37
2018-07-16T23:52:29.718Z,5.20
2018-07-16T23:57:32.221Z,3.80
